createdAt,value
2018-02-25T00:01:08.209Z,-6.10
2018-02-25T00:03:35.716Z,-6.10
2018-02-25T00:06:03.225Z,-6.20
2018-02-25T00:08:30.767Z,-6.10
2018-02-25T00:10:58.259Z,-6.30
2018-02-25T00:13:26.599Z,-6.30
2018-02-25T00:15:54.881Z,-6.60
2018-02-25T00:18:22.370Z,-6.70
2018-02-25T00:20:49.897Z,-6.60
2018-02-25T00:23:17.387Z,-6.50
2018-02-25T00:25:44.915Z,-6.50
2018-02-25T00:28:13.183Z,-6.70
2018-02-25T00:30:40.683Z,-6.70
2018-02-25T00:33:08.304Z,-6.60
2018-02-25T00:35:36.035Z,-6.50
2018-02-25T00:38:04.326Z,-6.60
2018-02-25T00:40:32.627Z,-6.70
2018-02-25T00:43:00.154Z,-6.70
2018-02-25T00:45:28.427Z,-6.70
2018-02-25T00:47:56.707Z,-6.80
2018-02-25T00:50:25.017Z,-6.80
2018-02-25T00:52:52.517Z,-6.90
2018-02-25T00:55:20.084Z,-6.70
2018-02-25T00:57:48.364Z,-6.80
2018-02-25T01:00:16.641Z,-6.80
2018-02-25T01:02:44.941Z,-6.80
2018-02-25T01:05:12.461Z,-6.90
2018-02-25T01:07:39.985Z,-7.00
2018-02-25T01:10:07.489Z,-6.80
2018-02-25T01:12:35.767Z,-7.00
2018-02-25T01:15:04.090Z,-7.00
2018-02-25T01:17:31.601Z,-7.10
2018-02-25T01:19:59.869Z,-6.90
2018-02-25T01:22:28.164Z,-7.00
2018-02-25T01:24:55.748Z,-7.00
2018-02-25T01:27:23.250Z,-7.10
2018-02-25T01:29:50.765Z,-7.10
2018-02-25T01:32:18.260Z,-7.10
2018-02-25T01:34:45.784Z,-7.10
2018-02-25T01:37:13.268Z,-7.00
2018-02-25T01:39:40.765Z,-7.00
2018-02-25T01:42:08.280Z,-7.10
2018-02-25T01:44:35.791Z,-7.10
2018-02-25T01:47:03.331Z,-7.20
2018-02-25T01:49:30.834Z,-7.30
2018-02-25T01:51:58.362Z,-7.40
2018-02-25T01:54:25.872Z,-7.30
2018-02-25T01:56:54.151Z,-7.40
2018-02-25T01:59:21.661Z,-7.40
2018-02-25T02:01:49.179Z,-7.40
2018-02-25T02:04:16.710Z,-7.40
2018-02-25T02:06:44.199Z,-7.30
2018-02-25T02:09:12.467Z,-7.40
2018-02-25T02:11:40.737Z,-7.30
2018-02-25T02:14:09.119Z,-7.50
2018-02-25T02:16:36.631Z,-7.50
2018-02-25T02:19:04.139Z,-7.50
2018-02-25T02:21:31.643Z,-7.50
2018-02-25T02:23:59.147Z,-7.70
2018-02-25T02:26:27.418Z,-7.70
2018-02-25T02:28:55.808Z,-7.80
2018-02-25T02:31:23.332Z,-7.80
2018-02-25T02:33:50.851Z,-7.60
2018-02-25T02:36:18.377Z,-7.80
2018-02-25T02:38:45.942Z,-7.80
2018-02-25T02:41:13.498Z,-7.70
2018-02-25T02:43:41.001Z,-7.80
2018-02-25T02:46:08.516Z,-7.80
2018-02-25T02:48:36.025Z,-7.80
2018-02-25T02:51:03.545Z,-7.90
2018-02-25T02:53:31.063Z,-8.00
2018-02-25T02:55:59.331Z,-8.00
2018-02-25T02:58:27.738Z,-8.00
2018-02-25T03:00:55.242Z,-8.10
2018-02-25T03:03:22.782Z,-7.90
2018-02-25T03:05:50.315Z,-7.80
2018-02-25T03:08:17.866Z,-7.80
2018-02-25T03:10:45.389Z,-7.70
2018-02-25T03:13:13.656Z,-8.00
2018-02-25T03:15:41.165Z,-8.10
2018-02-25T03:18:08.678Z,-8.10
2018-02-25T03:20:36.183Z,-8.10
2018-02-25T03:23:03.696Z,-7.90
2018-02-25T03:25:31.960Z,-8.00
2018-02-25T03:27:59.479Z,-8.00
2018-02-25T03:30:26.988Z,-8.10
2018-02-25T03:32:54.527Z,-8.10
2018-02-25T03:35:22.040Z,-8.10
2018-02-25T03:37:49.581Z,-8.20
2018-02-25T03:40:17.083Z,-8.20
2018-02-25T03:42:44.587Z,-8.30
2018-02-25T03:45:12.981Z,-8.30
2018-02-25T03:47:40.545Z,-8.30
2018-02-25T03:50:08.090Z,-8.20
2018-02-25T03:52:35.601Z,-8.10
2018-02-25T03:55:03.106Z,-8.20
2018-02-25T03:57:30.657Z,-8.30
2018-02-25T03:59:58.213Z,-8.40
2018-02-25T04:02:25.721Z,-8.30
2018-02-25T04:04:53.330Z,-8.20
2018-02-25T04:07:20.886Z,-8.20
2018-02-25T04:09:48.406Z,-8.40
2018-02-25T04:12:16.023Z,-8.30
2018-02-25T04:14:43.521Z,-8.30
2018-02-25T04:17:11.033Z,-8.40
2018-02-25T04:19:38.532Z,-8.30
2018-02-25T04:22:06.131Z,-8.40
2018-02-25T04:24:33.637Z,-8.40
2018-02-25T04:27:01.136Z,-8.60
2018-02-25T04:29:29.408Z,-8.70
2018-02-25T04:31:57.671Z,-8.60
2018-02-25T04:34:26.066Z,-8.60
2018-02-25T04:36:53.585Z,-8.70
2018-02-25T04:39:21.076Z,-8.50
2018-02-25T04:41:49.353Z,-8.60
2018-02-25T04:44:17.625Z,-8.60
2018-02-25T04:46:45.917Z,-8.60
2018-02-25T04:49:13.415Z,-8.70
2018-02-25T04:51:40.915Z,-8.60
2018-02-25T04:54:08.446Z,-8.70
2018-02-25T04:56:35.948Z,-8.80
2018-02-25T04:59:03.464Z,-8.70
2018-02-25T05:01:31.728Z,-8.80
2018-02-25T05:03:59.236Z,-8.90
2018-02-25T05:06:26.793Z,-8.90
2018-02-25T05:08:54.362Z,-8.80
2018-02-25T05:11:21.893Z,-8.70
2018-02-25T05:13:49.422Z,-8.70
2018-02-25T05:16:16.933Z,-8.60
2018-02-25T05:18:44.447Z,-8.60
2018-02-25T05:21:12.718Z,-8.60
2018-02-25T05:23:40.991Z,-8.50
2018-02-25T05:26:09.277Z,-8.40
2018-02-25T05:28:37.553Z,-8.60
2018-02-25T05:31:06.017Z,-8.60
2018-02-25T05:33:34.295Z,-8.70
2018-02-25T05:36:01.792Z,-8.70
2018-02-25T05:38:29.302Z,-8.80
2018-02-25T05:40:56.815Z,-8.70
2018-02-25T05:43:24.314Z,-8.70
2018-02-25T05:45:51.905Z,-8.80
2018-02-25T05:48:19.453Z,-8.80
2018-02-25T05:50:47.741Z,-8.80
2018-02-25T05:53:15.248Z,-8.90
2018-02-25T05:55:42.861Z,-9.00
2018-02-25T05:58:10.363Z,-8.90
2018-02-25T06:00:37.901Z,-8.80
2018-02-25T06:03:05.390Z,-8.90
2018-02-25T06:05:32.998Z,-8.80
2018-02-25T06:08:00.545Z,-8.90
2018-02-25T06:10:28.106Z,-8.90
2018-02-25T06:12:55.600Z,-8.80
2018-02-25T06:15:23.113Z,-8.80
2018-02-25T06:17:50.630Z,-8.80
2018-02-25T06:20:18.121Z,-8.80
2018-02-25T06:22:45.638Z,-8.80
2018-02-25T06:25:13.138Z,-8.90
2018-02-25T06:27:40.674Z,-8.90
2018-02-25T06:30:20.605Z,-8.80
2018-02-25T06:32:48.543Z,-8.90
2018-02-25T06:35:16.052Z,-8.80
2018-02-25T06:37:44.311Z,-8.50
2018-02-25T06:40:11.836Z,-8.60
2018-02-25T06:42:39.367Z,-8.40
2018-02-25T06:45:06.896Z,-8.40
2018-02-25T06:47:35.171Z,-8.50
2018-02-25T06:50:02.709Z,-8.60
2018-02-25T06:52:30.319Z,-8.40
2018-02-25T06:54:57.826Z,-8.30
2018-02-25T06:57:25.365Z,-8.10
2018-02-25T06:59:54.405Z,-7.80
2018-02-25T07:02:21.950Z,-7.80
2018-02-25T07:04:50.680Z,-7.70
2018-02-25T07:07:18.313Z,-7.70
2018-02-25T07:09:45.838Z,-7.80
2018-02-25T07:12:14.153Z,-7.60
2018-02-25T07:14:41.799Z,-7.70
2018-02-25T07:17:09.308Z,-7.50
2018-02-25T07:19:36.845Z,-7.80
2018-02-25T07:22:04.396Z,-7.80
2018-02-25T07:24:32.633Z,-7.40
2018-02-25T07:27:00.910Z,-7.30
2018-02-25T07:29:29.201Z,-7.10
2018-02-25T07:31:56.711Z,-7.20
2018-02-25T07:34:24.222Z,-7.10
2018-02-25T07:36:51.733Z,-7.10
2018-02-25T07:39:20.045Z,-6.90
2018-02-25T07:41:47.568Z,-7.00
2018-02-25T07:44:15.907Z,-6.90
2018-02-25T07:46:43.453Z,-6.90
2018-02-25T07:49:10.968Z,-6.60
2018-02-25T07:51:39.248Z,-5.70
2018-02-25T07:54:07.537Z,-5.80
2018-02-25T07:56:35.796Z,-4.80
2018-02-25T07:59:04.070Z,-4.30
2018-02-25T08:01:32.358Z,-4.90
2018-02-25T08:03:59.873Z,-5.00
2018-02-25T08:06:27.394Z,-5.10
2018-02-25T08:08:54.932Z,-5.00
2018-02-25T08:11:22.429Z,-5.30
2018-02-25T08:13:49.958Z,-4.20
2018-02-25T08:16:17.488Z,-4.50
2018-02-25T08:18:45.764Z,-5.20
2018-02-25T08:21:14.038Z,-5.70
2018-02-25T08:23:42.361Z,-5.60
2018-02-25T08:26:09.873Z,-5.70
2018-02-25T08:28:38.162Z,-5.50
2018-02-25T08:31:05.725Z,-5.60
2018-02-25T08:33:33.232Z,-4.90
2018-02-25T08:36:00.737Z,-4.80
2018-02-25T08:38:28.255Z,-4.70
2018-02-25T08:40:55.757Z,-5.40
2018-02-25T08:43:23.270Z,-5.40
2018-02-25T08:45:50.885Z,-4.70
2018-02-25T08:48:18.371Z,-4.40
2018-02-25T08:50:46.899Z,-4.50
2018-02-25T08:53:14.395Z,-5.00
2018-02-25T08:55:41.904Z,-5.40
2018-02-25T08:58:10.190Z,-5.50
2018-02-25T09:00:37.697Z,-5.50
2018-02-25T09:03:05.306Z,-4.90
2018-02-25T09:05:32.998Z,-5.50
2018-02-25T09:08:00.745Z,-5.90
2018-02-25T09:10:28.258Z,-5.80
2018-02-25T09:12:56.558Z,-5.60
2018-02-25T09:15:24.066Z,-5.70
2018-02-25T09:17:51.575Z,-5.60
2018-02-25T09:20:19.105Z,-5.40
2018-02-25T09:22:46.620Z,-5.00
2018-02-25T09:25:14.254Z,-5.00
2018-02-25T09:27:41.796Z,-5.10
2018-02-25T09:30:10.064Z,-4.60
2018-02-25T09:32:37.591Z,-4.70
2018-02-25T09:35:05.088Z,-4.50
2018-02-25T09:37:32.647Z,-4.30
2018-02-25T09:40:00.144Z,-4.30
2018-02-25T09:42:27.759Z,-4.20
2018-02-25T09:44:56.425Z,-3.00
2018-02-25T09:47:24.705Z,-3.50
2018-02-25T09:49:52.977Z,-2.80
2018-02-25T09:52:21.255Z,-3.40
2018-02-25T09:54:49.527Z,-3.60
2018-02-25T09:57:17.807Z,-3.50
2018-02-25T09:59:46.085Z,-3.30
2018-02-25T10:02:14.361Z,-3.00
2018-02-25T10:04:42.627Z,-3.10
2018-02-25T10:07:10.916Z,-3.10
2018-02-25T10:09:38.411Z,-3.10
2018-02-25T10:12:05.933Z,-3.00
2018-02-25T10:14:33.465Z,-2.80
2018-02-25T10:17:00.956Z,-2.60
2018-02-25T10:19:28.556Z,-2.50
2018-02-25T10:21:56.046Z,-3.00
2018-02-25T10:24:24.319Z,-2.90
2018-02-25T10:26:52.666Z,-2.30
2018-02-25T10:29:20.193Z,-2.40
2018-02-25T10:31:47.702Z,-3.10
2018-02-25T10:34:15.284Z,-2.90
2018-02-25T10:36:42.786Z,-2.10
2018-02-25T10:39:10.286Z,-3.10
2018-02-25T10:41:38.671Z,-2.40
2018-02-25T10:44:06.942Z,-2.40
2018-02-25T10:46:35.199Z,-2.70
2018-02-25T10:49:02.850Z,-2.80
2018-02-25T10:51:30.375Z,-1.90
2018-02-25T10:53:57.874Z,-2.60
2018-02-25T10:56:26.155Z,-0.70
2018-02-25T10:58:54.450Z,-2.00
2018-02-25T11:01:21.945Z,-2.10
2018-02-25T11:03:49.552Z,-1.90
2018-02-25T11:06:17.808Z,-2.20
2018-02-25T11:08:45.322Z,-2.30
2018-02-25T11:11:12.851Z,-1.90
2018-02-25T11:13:40.340Z,-1.80
2018-02-25T11:16:07.873Z,-1.20
2018-02-25T11:18:35.384Z,-1.50
2018-02-25T11:21:02.878Z,-2.20
2018-02-25T11:23:30.379Z,-2.80
2018-02-25T11:25:57.998Z,-2.50
2018-02-25T11:28:25.502Z,-2.50
2018-02-25T11:30:53.135Z,-2.20
2018-02-25T11:33:20.635Z,-2.90
2018-02-25T11:35:48.127Z,-2.20
2018-02-25T11:38:15.671Z,-2.50
2018-02-25T11:40:43.934Z,-1.40
2018-02-25T11:43:12.222Z,-1.90
2018-02-25T11:45:39.721Z,-2.00
2018-02-25T11:48:07.225Z,-2.40
2018-02-25T11:50:35.491Z,-3.00
2018-02-25T11:53:03.062Z,-3.00
2018-02-25T11:55:31.345Z,-3.00
2018-02-25T11:57:58.831Z,-3.10
2018-02-25T12:00:26.338Z,-3.20
2018-02-25T12:02:53.840Z,-3.10
2018-02-25T12:05:21.421Z,-3.50
2018-02-25T12:07:48.946Z,-2.70
2018-02-25T12:10:16.431Z,-2.00
2018-02-25T12:12:44.039Z,-2.30
2018-02-25T12:15:12.286Z,-2.90
2018-02-25T12:17:39.871Z,-3.00
2018-02-25T12:20:08.144Z,-2.60
2018-02-25T12:22:36.407Z,-2.70
2018-02-25T12:25:03.984Z,-2.80
2018-02-25T12:27:32.288Z,-3.70
2018-02-25T12:29:59.945Z,-3.80
2018-02-25T12:32:27.487Z,-3.60
2018-02-25T12:34:54.992Z,-3.80
2018-02-25T12:37:22.514Z,-3.80
2018-02-25T12:39:50.029Z,-3.50
2018-02-25T12:42:18.322Z,-4.00
2018-02-25T12:44:46.608Z,-3.80
2018-02-25T12:47:14.113Z,-3.90
2018-02-25T12:49:41.605Z,-3.90
2018-02-25T12:52:09.882Z,-3.60
2018-02-25T12:54:37.371Z,-3.60
2018-02-25T12:57:04.860Z,-3.90
2018-02-25T12:59:32.375Z,-4.00
2018-02-25T13:01:59.877Z,-3.90
2018-02-25T13:04:27.391Z,-3.90
2018-02-25T13:06:55.743Z,-4.40
2018-02-25T13:09:24.116Z,-4.00
2018-02-25T13:11:52.448Z,-3.90
2018-02-25T13:14:20.081Z,-3.90
2018-02-25T13:16:47.604Z,-3.30
2018-02-25T13:19:15.871Z,-4.00
2018-02-25T13:21:44.148Z,-3.70
2018-02-25T13:24:12.404Z,-3.80
2018-02-25T13:26:39.925Z,-3.90
2018-02-25T13:29:07.427Z,-4.50
2018-02-25T13:31:34.919Z,-4.30
2018-02-25T13:34:02.439Z,-4.30
2018-02-25T13:36:30.028Z,-3.90
2018-02-25T13:38:57.612Z,-4.20
2018-02-25T13:41:35.016Z,-4.00
2018-02-25T13:44:02.529Z,-3.90
2018-02-25T13:46:30.050Z,-4.30
2018-02-25T13:48:57.570Z,-3.90
2018-02-25T13:51:25.055Z,-4.20
2018-02-25T13:53:52.553Z,-4.20
2018-02-25T13:56:20.051Z,-4.00
2018-02-25T13:58:47.556Z,-4.00
2018-02-25T14:01:15.819Z,-3.80
2018-02-25T14:03:43.330Z,-3.80
2018-02-25T14:06:10.872Z,-3.60
2018-02-25T14:08:38.370Z,-4.30
2018-02-25T14:11:05.874Z,-4.30
2018-02-25T14:13:33.372Z,-3.90
2018-02-25T14:16:00.870Z,-3.90
2018-02-25T14:18:29.131Z,-4.00
2018-02-25T14:20:57.430Z,-4.40
2018-02-25T14:23:25.691Z,-4.00
2018-02-25T14:25:53.960Z,-4.10
2018-02-25T14:28:22.261Z,-4.20
2018-02-25T14:30:50.805Z,-4.30
2018-02-25T14:33:18.307Z,-4.20
2018-02-25T14:35:45.827Z,-4.30
2018-02-25T14:38:14.185Z,-4.20
2018-02-25T14:40:41.706Z,-4.30
2018-02-25T14:43:09.212Z,-4.40
2018-02-25T14:45:36.702Z,-4.30
2018-02-25T14:48:04.215Z,-4.00
2018-02-25T14:50:31.712Z,-4.20
2018-02-25T14:52:59.219Z,-4.20
2018-02-25T14:55:26.738Z,-4.20
2018-02-25T14:57:54.244Z,-4.00
2018-02-25T15:00:21.835Z,-4.00
2018-02-25T15:02:50.113Z,-3.90
2018-02-25T15:05:17.642Z,-4.00
2018-02-25T15:07:45.944Z,-4.30
2018-02-25T15:10:13.509Z,-4.40
2018-02-25T15:12:41.039Z,-4.40
2018-02-25T15:15:08.547Z,-4.50
2018-02-25T15:17:36.061Z,-4.50
2018-02-25T15:20:04.331Z,-4.50
2018-02-25T15:22:32.660Z,-4.50
2018-02-25T15:25:00.198Z,-4.60
2018-02-25T15:27:27.708Z,-4.50
2018-02-25T15:29:55.305Z,-4.60
2018-02-25T15:32:22.811Z,-4.50
2018-02-25T15:34:50.302Z,-4.20
2018-02-25T15:37:18.592Z,-4.20
2018-02-25T15:39:46.107Z,-4.20
2018-02-25T15:42:13.633Z,-4.40
2018-02-25T15:44:41.155Z,-4.30
2018-02-25T15:47:08.651Z,-4.40
2018-02-25T15:49:36.221Z,-4.50
2018-02-25T15:52:03.708Z,-4.60
2018-02-25T15:54:31.970Z,-4.60
2018-02-25T15:57:00.270Z,-4.60
2018-02-25T15:59:27.775Z,-4.70
2018-02-25T16:01:55.388Z,-4.70
2018-02-25T16:04:23.647Z,-4.50
2018-02-25T16:06:51.964Z,-4.60
2018-02-25T16:09:19.493Z,-4.70
2018-02-25T16:11:47.766Z,-4.70
2018-02-25T16:14:15.300Z,-4.80
2018-02-25T16:16:42.897Z,-4.70
2018-02-25T16:19:10.415Z,-4.60
2018-02-25T16:21:37.907Z,-4.70
2018-02-25T16:24:05.459Z,-4.80
2018-02-25T16:26:32.962Z,-4.90
2018-02-25T16:29:00.538Z,-4.90
2018-02-25T16:31:28.020Z,-4.70
2018-02-25T16:33:56.429Z,-4.70
2018-02-25T16:36:23.945Z,-4.80
2018-02-25T16:38:52.225Z,-4.70
2018-02-25T16:41:20.505Z,-4.80
2018-02-25T16:43:48.775Z,-4.90
2018-02-25T16:46:17.035Z,-5.00
2018-02-25T16:48:44.591Z,-5.00
2018-02-25T16:51:12.125Z,-4.90
2018-02-25T16:53:39.679Z,-4.90
2018-02-25T16:56:07.164Z,-4.80
2018-02-25T16:58:35.440Z,-5.20
2018-02-25T17:01:02.960Z,-5.20
2018-02-25T17:03:30.537Z,-5.20
2018-02-25T17:05:58.022Z,-5.20
2018-02-25T17:08:26.283Z,-5.30
2018-02-25T17:10:53.802Z,-5.30
2018-02-25T17:13:21.319Z,-5.30
2018-02-25T17:15:48.835Z,-5.30
2018-02-25T17:18:16.489Z,-5.10
2018-02-25T17:20:43.980Z,-5.20
2018-02-25T17:23:12.319Z,-5.30
2018-02-25T17:25:39.858Z,-5.30
2018-02-25T17:28:07.445Z,-5.30
2018-02-25T17:30:34.921Z,-5.40
2018-02-25T17:33:03.216Z,-5.50
2018-02-25T17:35:30.725Z,-5.50
2018-02-25T17:37:58.227Z,-5.20
2018-02-25T17:40:26.513Z,-5.30
2018-02-25T17:42:54.029Z,-5.30
2018-02-25T17:45:21.543Z,-5.40
2018-02-25T17:47:49.075Z,-5.40
2018-02-25T17:50:17.350Z,-5.50
2018-02-25T17:52:45.651Z,-5.40
2018-02-25T17:55:24.373Z,-5.50
2018-02-25T17:57:40.707Z,-5.40
2018-02-25T18:00:09.738Z,-5.40
2018-02-25T18:02:37.313Z,-5.40
2018-02-25T18:05:04.829Z,-5.60
2018-02-25T18:07:33.203Z,-5.50
2018-02-25T18:10:00.707Z,-5.50
2018-02-25T18:12:28.256Z,-5.40
2018-02-25T18:14:55.768Z,-5.20
2018-02-25T18:17:23.263Z,-5.20
2018-02-25T18:19:50.782Z,-5.20
2018-02-25T18:22:18.299Z,-5.20
2018-02-25T18:24:45.836Z,-5.20
2018-02-25T18:27:13.398Z,-5.20
2018-02-25T18:29:40.929Z,-5.40
2018-02-25T18:32:09.219Z,-5.60
2018-02-25T18:34:36.779Z,-5.70
2018-02-25T18:37:04.355Z,-5.70
2018-02-25T18:39:31.881Z,-5.60
2018-02-25T18:42:00.177Z,-5.50
2018-02-25T18:44:27.913Z,-5.50
2018-02-25T18:46:56.195Z,-5.60
2018-02-25T18:49:24.501Z,-5.60
2018-02-25T18:51:52.003Z,-5.70
2018-02-25T18:54:19.559Z,-5.50
2018-02-25T18:56:48.567Z,-5.50
2018-02-25T18:59:16.064Z,-5.50
2018-02-25T19:01:43.610Z,-5.60
2018-02-25T19:04:11.120Z,-5.50
2018-02-25T19:06:38.762Z,-5.60
2018-02-25T19:09:06.282Z,-5.90
2018-02-25T19:11:33.824Z,-6.00
2018-02-25T19:14:02.127Z,-6.00
2018-02-25T19:16:29.643Z,-6.10
2018-02-25T19:18:57.918Z,-5.50
2018-02-25T19:21:26.201Z,-3.80
2018-02-25T19:23:54.508Z,-3.00
2018-02-25T19:26:22.037Z,-3.10
2018-02-25T19:28:50.333Z,-3.70
2018-02-25T19:31:17.824Z,-3.70
2018-02-25T19:33:45.361Z,-3.70
2018-02-25T19:36:18.416Z,-4.50
2018-02-25T19:38:51.681Z,-5.40
2018-02-25T19:41:25.722Z,-6.10
2018-02-25T19:43:53.244Z,-6.20
2018-02-25T19:46:20.796Z,-6.30
2018-02-25T19:48:48.326Z,-6.30
2018-02-25T19:51:15.880Z,-6.30
2018-02-25T19:53:43.407Z,-6.40
2018-02-25T19:56:10.931Z,-6.30
2018-02-25T19:58:38.454Z,-6.40
2018-02-25T20:01:05.982Z,-6.30
2018-02-25T20:03:33.510Z,-6.30
2018-02-25T20:06:01.816Z,-6.50
2018-02-25T20:08:29.339Z,-6.60
2018-02-25T20:10:56.831Z,-6.50
2018-02-25T20:13:25.121Z,-6.50
2018-02-25T20:15:52.648Z,-6.70
2018-02-25T20:18:20.238Z,-6.80
2018-02-25T20:20:47.770Z,-6.80
2018-02-25T20:23:26.441Z,-6.80
2018-02-25T20:25:53.951Z,-6.80
2018-02-25T20:28:21.458Z,-6.90
2018-02-25T20:30:48.985Z,-6.90
2018-02-25T20:33:16.511Z,-6.90
2018-02-25T20:35:44.784Z,-7.00
2018-02-25T20:38:13.063Z,-6.90
2018-02-25T20:40:41.352Z,-6.80
2018-02-25T20:43:08.852Z,-6.90
2018-02-25T20:45:36.359Z,-6.80
2018-02-25T20:48:03.935Z,-6.80
2018-02-25T20:50:31.479Z,-6.90
2018-02-25T20:52:59.008Z,-7.00
2018-02-25T20:55:27.431Z,-7.10
2018-02-25T20:57:54.943Z,-7.20
2018-02-25T21:00:23.219Z,-7.10
2018-02-25T21:02:51.496Z,-7.10
2018-02-25T21:05:19.886Z,-7.20
2018-02-25T21:07:47.409Z,-7.30
2018-02-25T21:10:14.931Z,-7.10
2018-02-25T21:12:42.427Z,-7.20
2018-02-25T21:15:09.948Z,-7.30
2018-02-25T21:17:37.477Z,-7.40
2018-02-25T21:20:05.042Z,-7.60
2018-02-25T21:22:32.564Z,-7.80
2018-02-25T21:25:00.082Z,-7.80
2018-02-25T21:27:27.714Z,-7.90
2018-02-25T21:29:55.263Z,-7.90
2018-02-25T21:32:22.785Z,-8.00
2018-02-25T21:34:50.309Z,-8.00
2018-02-25T21:37:17.824Z,-8.00
2018-02-25T21:39:46.104Z,-7.90
2018-02-25T21:42:13.664Z,-8.00
2018-02-25T21:44:41.941Z,-8.00
2018-02-25T21:47:10.340Z,-8.10
2018-02-25T21:49:37.890Z,-8.10
2018-02-25T21:52:06.158Z,-8.00
2018-02-25T21:54:39.281Z,-8.10
2018-02-25T21:57:12.441Z,-8.00
2018-02-25T21:59:45.731Z,-8.00
2018-02-25T22:02:19.065Z,-8.00
2018-02-25T22:04:46.639Z,-7.90
2018-02-25T22:07:14.245Z,-8.00
2018-02-25T22:09:41.758Z,-8.00
2018-02-25T22:12:09.349Z,-8.10
2018-02-25T22:14:36.865Z,-8.20
2018-02-25T22:17:04.461Z,-8.20
2018-02-25T22:19:31.980Z,-8.30
2018-02-25T22:21:59.510Z,-8.40
2018-02-25T22:24:27.020Z,-8.20
2018-02-25T22:26:55.285Z,-8.20
2018-02-25T22:29:22.817Z,-8.30
2018-02-25T22:31:50.317Z,-8.20
2018-02-25T22:34:18.580Z,-8.20
2018-02-25T22:36:46.862Z,-8.40
2018-02-25T22:39:15.990Z,-8.40
2018-02-25T22:41:43.491Z,-8.40
2018-02-25T22:44:11.001Z,-8.50
2018-02-25T22:46:38.549Z,-8.60
2018-02-25T22:49:06.052Z,-8.60
2018-02-25T22:51:33.547Z,-8.60
2018-02-25T22:54:01.040Z,-8.60
2018-02-25T22:56:28.564Z,-8.50
2018-02-25T22:58:56.069Z,-8.60
2018-02-25T23:01:23.585Z,-8.80
2018-02-25T23:03:51.176Z,-8.90
2018-02-25T23:06:18.705Z,-8.90
2018-02-25T23:08:46.207Z,-8.80
2018-02-25T23:11:13.698Z,-8.80
2018-02-25T23:13:42.009Z,-8.90
2018-02-25T23:16:10.387Z,-9.00
2018-02-25T23:18:37.887Z,-8.90
2018-02-25T23:21:05.383Z,-8.90
2018-02-25T23:23:32.923Z,-8.90
2018-02-25T23:26:01.190Z,-8.90
2018-02-25T23:28:29.467Z,-8.80
2018-02-25T23:30:57.757Z,-8.80
2018-02-25T23:33:25.253Z,-8.90
2018-02-25T23:35:52.811Z,-8.80
2018-02-25T23:38:20.319Z,-9.00
2018-02-25T23:40:48.589Z,-8.90
2018-02-25T23:43:16.997Z,-9.10
2018-02-25T23:45:44.521Z,-9.20
2018-02-25T23:48:12.794Z,-9.10
2018-02-25T23:50:41.063Z,-9.10
2018-02-25T23:53:09.336Z,-8.90
2018-02-25T23:55:37.595Z,-8.90
2018-02-25T23:58:05.211Z,-9.00
